Flight Track Log - Related Links

Times and Time Zones

All times are in EDT time to prevent confusion due to time zone crossing. See the UPS35 flight status page for this flight to view local times or setup timezone preferences in your user account.

Time Position Orientation Groundspeed Altitude Reporting Facility
EDT Latitude Longitude Course Direction KTS MPH feet Rate Location/Type
Sun 06:45:13 AM -33.9560 151.1780 320° Northwest 120 138  Level FlightAware ADS-B
Sun 06:45:28 AM -33.9450 151.1760 320° Northwest 167 192 1,600 Level FlightAware ADS-B
Sun 06:45:37 AM -33.9037 151.1297 129° Southeast 12,900 3,200 Climbing Aus ATC (Calculated)
Sun 06:45:43 AM -33.9330 151.1730 348° North 164 189 800 -20,710 Descending FlightAware ADS-B
Sun 06:46:08 AM -33.9140 151.1710 355° North 167 192 2,200 3,200 Climbing FlightAware ADS-B
Sun 06:46:13 AM -33.9110 151.1690 331° Northwest 156 180 2,400 2,800 Climbing FlightAware ADS-B
Sun 06:46:23 AM -33.9040 151.1650 335° Northwest 161 185 2,900 2,400 Climbing FlightAware ADS-B
Sun 06:46:43 AM -33.8930 151.1530 318° Northwest 180 207 3,600 1,543 Climbing FlightAware ADS-B
Sun 06:46:58 AM -33.8830 151.1400 313° West 207 238 3,800 1,543 Climbing FlightAware ADS-B
Sun 06:47:18 AM -33.8690 151.1200 310° West 246 283 4,500 2,634 Climbing FlightAware ADS-B
Sun 06:47:39 AM -33.8530 151.1000 314° West 259 298 5,600 3,200 Climbing FlightAware ADS-B
Sun 06:47:48 AM -33.8450 151.0890 311° West 264 304 6,100 3,257 Climbing FlightAware ADS-B
Sun 06:48:14 AM -33.8210 151.0620 317° Northwest 283 326 7,500 3,652 Climbing FlightAware ADS-B
Sun 06:48:34 AM -33.7970 151.0460 331° Northwest 291 335 8,900 4,038 Climbing FlightAware ADS-B
Sun 06:49:06 AM -33.7570 151.0206 331° Northwest 285 328 11,000 3,500 Climbing Aus ATC (RADAR)
Sun 06:49:10 AM -33.7540 151.0190 331° Northwest 294 338 11,000 1,579 Level FlightAware ADS-B
Sun 06:49:44 AM -33.7090 150.9890 331° Northwest 336 387 12,000 1,714 Climbing FlightAware ADS-B
Sun 06:50:20 AM -33.6570 150.9510 329° Northwest 378 435 13,000 1,971 Climbing FlightAware ADS-B
Sun 06:50:54 AM -33.6030 150.9130 330° Northwest 408 470 14,300 2,719 Climbing FlightAware ADS-B
Sun 06:51:24 AM -33.5496 150.8765 330° Northwest 397 457 15,900 2,914 Climbing Aus ATC (RADAR)
Sun 06:51:29 AM -33.5430 150.8720 330° Northwest 423 487 16,000 2,400 Climbing FlightAware ADS-B
Sun 06:52:04 AM -33.4830 150.8310 330° Northwest 427 491 17,500 2,757 Climbing FlightAware ADS-B
Sun 06:52:06 AM -33.4776 150.8269 330° Northwest 426 490 17,700 2,800 Climbing Aus ATC (RADAR)
Sun 06:52:34 AM -33.4300 150.7950 330° Northwest 441 507 18,900 2,743 Climbing FlightAware ADS-B
Sun 06:52:41 AM -33.4158 150.7854 330° Northwest 432 497 19,300 1,950 Climbing Aus ATC (RADAR)
Sun 06:53:14 AM -33.3520 150.7570 330° Northwest 464 534 20,200 1,886 Climbing FlightAware ADS-B
Sun 06:53:16 AM -33.3463 150.7537 330° Northwest 454 522 20,400 3,086 Climbing Aus ATC (RADAR)
Sun 06:53:49 AM -33.2789 150.7259 330° Northwest 446 513 22,000 2,545 Climbing Aus ATC (RADAR)
Sun 06:53:49 AM -33.2800 150.7260 330° Northwest 458 527 21,800 2,229 Descending FlightAware ADS-B
Sun 06:54:24 AM -33.2073 150.6951 330° Northwest 453 521 23,300 2,229 Climbing Aus ATC (RADAR)
Sun 06:54:24 AM -33.2120 150.6970 330° Northwest 463 533 23,100 2,057 Descending FlightAware ADS-B
Sun 06:54:59 AM -33.1360 150.6650 341° North 476 548 24,500 2,053 Climbing FlightAware ADS-B
Sun 06:55:40 AM -33.0560 150.6300 341° North 482 555 25,700 2,000 Climbing FlightAware ADS-B
Sun 06:55:44 AM -33.0408 150.6236 341° North 466 536 26,000 2,923 Climbing Aus ATC (RADAR)
Sun 06:56:19 AM -32.9675 150.5920 341° North 465 535 27,600 2,400 Climbing Aus ATC (RADAR)
Sun 06:56:19 AM -32.9730 150.5940 341° North 481 554 27,400 2,250 Descending FlightAware ADS-B
Sun 06:56:59 AM -32.8837 150.5557 341° North 469 540 29,100 2,195 Climbing Aus ATC (RADAR)
Sun 06:57:00 AM -32.8900 150.5590 341° North 481 554 28,900 2,438 Descending FlightAware ADS-B
Sun 06:57:31 AM -32.8182 150.5278 341° North 477 549 30,400 1,500 Climbing Aus ATC (RADAR)
Sun 06:57:36 AM -32.8430 150.5380 341° North 478 550 29,800 2,400 Descending FlightAware ADS-B
Sun 06:58:06 AM -32.7459 150.4972 341° North 474 545 31,800 3,474 Climbing Aus ATC (RADAR)
Sun 06:58:14 AM -32.7310 150.4910 341° North 464 534 32,000 1,571 Climbing FlightAware ADS-B
Sun 06:58:48 AM -32.6600 150.4610 340° North 465 535 32,900 800 Climbing FlightAware ADS-B
Sun 06:59:29 AM -32.5760 150.4250 340° North 476 548 33,000 80 Climbing FlightAware ADS-B
Sun 07:00:03 AM -32.5050 150.3950 340° North 476 548 33,000  Level FlightAware ADS-B
Sun 07:00:44 AM -32.4200 150.3590 340° North 476 548 33,000 143 Level FlightAware ADS-B
Sun 07:00:45 AM -32.4156 150.3574 340° North 474 545 33,100  Climbing Aus ATC (RADAR)
Sun 07:01:19 AM -32.3460 150.3280 341° North 476 548 33,000 -92 Descending FlightAware ADS-B
Sun 07:01:50 AM -32.2830 150.3010 340° North 479 551 33,000 91 Level FlightAware ADS-B
Sun 07:02:25 AM -32.2071 150.2693 340° North 481 554 33,100  Climbing Aus ATC (RADAR)
Sun 07:02:26 AM -32.2070 150.2690 340° North 475 547 33,000 182 Descending FlightAware ADS-B
Sun 07:02:58 AM -32.1365 150.2400 340° North 474 545 33,200  Climbing Aus ATC (RADAR)
Sun 07:03:02 AM -32.1320 150.2380 340° North 475 547 33,000  Descending FlightAware ADS-B
Sun 07:03:33 AM -32.0629 150.2093 340° North 472 543 33,200  Climbing Aus ATC (RADAR)
Sun 07:03:36 AM -32.0590 150.2070 340° North 481 554 33,000 -245 Descending FlightAware ADS-B
Sun 07:04:22 AM -31.9630 150.1670 341° North 481 554 33,000  Level FlightAware ADS-B
Sun 07:04:56 AM -31.8900 150.1360 340° North 482 555 33,000  Level FlightAware ADS-B
Sun 07:05:37 AM -31.8050 150.1010 340° North 478 550 33,000 273 Level FlightAware ADS-B
Sun 07:05:40 AM -31.7976 150.0980 340° North 483 556 33,200 387 Climbing Aus ATC (RADAR)
Sun 07:06:08 AM -31.7369 150.0731 340° North 478 550 33,200 -324 Level Aus ATC (RADAR)
Sun 07:06:17 AM -31.7200 150.0650 340° North 480 552 33,000 600 Descending FlightAware ADS-B
Sun 07:06:58 AM -31.6330 150.0300 341° North 476 548 33,700 1,164 Climbing FlightAware ADS-B
Sun 07:07:24 AM -31.5800 150.0070 340° North 477 549 34,300 1,158 Climbing FlightAware ADS-B
Sun 07:07:55 AM -31.5100 149.9789 340° North 491 565 34,800 750 Climbing Aus ATC (RADAR)
Sun 07:08:04 AM -31.4940 149.9720 340° North 496 571 34,800 1,500 Level FlightAware ADS-B
Sun 07:08:39 AM -31.4160 149.9390 340° North 494 568 35,900 1,014 Climbing FlightAware ADS-B
Sun 07:09:15 AM -31.3440 149.9100 341° North 481 554 36,000 83 Climbing FlightAware ADS-B
Sun 07:09:51 AM -31.2650 149.8770 340° North 475 547 36,000  Level FlightAware ADS-B
Sun 07:10:21 AM -31.2080 149.8540 340° North 474 545 36,000 353 Level FlightAware ADS-B
Sun 07:10:25 AM -31.1921 149.8473 340° North 480 552 36,200 245 Climbing Aus ATC (RADAR)
Sun 07:11:10 AM -31.0964 149.8080 340° North 487 560 36,200 -245 Level Aus ATC (RADAR)
Sun 07:11:14 AM -31.1020 149.8100 340° North 481 554 36,000  Descending FlightAware ADS-B
Sun 07:11:45 AM -31.0218 149.7777 340° North 488 562 36,200  Climbing Aus ATC (RADAR)
Sun 07:11:47 AM -31.0240 149.7780 340° North 478 550 36,000  Descending FlightAware ADS-B
Sun 07:12:29 AM -30.9265 149.7391 340° North 486 559 36,200  Climbing Aus ATC (RADAR)
Sun 07:12:31 AM -30.9280 149.7390 340° North 476 548 36,000  Descending FlightAware ADS-B
Sun 07:13:02 AM -30.8563 149.7103 340° North 478 550 36,200  Climbing Aus ATC (RADAR)
Sun 07:13:22 AM -30.8280 149.6970 340° North 476 548 36,000 -214 Descending FlightAware ADS-B
Sun 07:13:58 AM -30.7650 149.6690 339° North 476 548 36,000  Level FlightAware ADS-B
Sun 07:14:42 AM -30.6570 149.6280 339° North 717 825 36,000 261 Level FlightAware ADS-B
Sun 07:14:44 AM -30.6421 149.6227 339° North 482 555 36,200 179 Climbing Aus ATC (RADAR)
Sun 07:15:49 AM -30.5061 149.5675 339° North 477 549 36,200  Level Aus ATC (RADAR)
Sun 07:16:52 AM -30.3739 149.5137 341° North 472 543 36,200  Level Aus ATC (RADAR)
Sun 07:17:32 AM -30.2901 149.4802 341° North 474 545 36,200  Level Aus ATC (RADAR)
Sun 07:18:07 AM -30.2165 149.4508 341° North 475 547 36,200 86 Level Aus ATC (RADAR)
Sun 07:18:42 AM -30.1435 149.4212 341° North 474 545 36,300 92 Climbing Aus ATC (RADAR)
Sun 07:19:12 AM -30.0804 149.3958 341° North 475 547 36,300 -97 Level Aus ATC (RADAR)
Sun 07:19:44 AM -30.0152 149.3693 341° North 476 548 36,200 -71 Descending Aus ATC (RADAR)
Sun 07:20:37 AM -29.9029 149.3255 341° North 472 543 36,200  Level Aus ATC (RADAR)
Sun 07:21:07 AM -29.8404 149.3004 341° North 473 544 36,200  Level Aus ATC (RADAR)
Sun 07:21:59 AM -29.7335 149.2570 341° North 476 548 36,200  Level Aus ATC (RADAR)
Sun 07:22:39 AM -29.6503 149.2235 341° North 478 550 36,200  Level Aus ATC (RADAR)
Sun 07:23:14 AM -29.5788 149.1936 340° North 474 545 36,200 86 Level Aus ATC (RADAR)
Sun 07:23:49 AM -29.5044 149.1646 341° North 479 551 36,300 61 Climbing Aus ATC (RADAR)
Sun 07:24:53 AM -29.3657 149.1110 341° North 486 559 36,300  Level Aus ATC (RADAR)
Sun 07:25:48 AM -29.2483 149.0654 341° North 488 562 36,300  Level Aus ATC (RADAR)
Sun 07:26:38 AM -29.1436 149.0232 341° North 483 556 36,300 -71 Level Aus ATC (RADAR)
Sun 07:27:13 AM -29.0699 148.9943 341° North 481 554 36,200 -82 Descending Aus ATC (RADAR)
Sun 07:27:51 AM -28.9884 148.9627 341° North 477 549 36,200  Level Aus ATC (RADAR)
Sun 07:28:28 AM -28.9129 148.9324 341° North 479 551 36,200  Level Aus ATC (RADAR)
Sun 07:29:01 AM -28.8419 148.9061 342° North 474 545 36,200  Level Aus ATC (RADAR)
Sun 07:29:31 AM -28.7791 148.8812 341° North 476 548 36,200  Level Aus ATC (RADAR)
Sun 07:30:06 AM -28.7061 148.8527 341° North 474 545 36,200  Level Aus ATC (RADAR)
Sun 07:31:11 AM -28.5705 148.8000 341° North 473 544 36,200  Level Aus ATC (RADAR)
Sun 07:32:11 AM -28.4456 148.7510 341° North 474 545 36,200  Level Aus ATC (RADAR)
Sun 07:32:56 AM -28.3510 148.7145 341° North 476 548 36,200 78 Level Aus ATC (RADAR)
Sun 07:33:28 AM -28.2847 148.6876 340° North 481 554 36,300 90 Climbing Aus ATC (RADAR)
Sun 07:34:03 AM -28.2108 148.6588 341° North 482 555 36,300  Level Aus ATC (RADAR)
Sun 07:34:33 AM -28.1466 148.6349 342° North 483 556 36,300  Level Aus ATC (RADAR)
Sun 07:35:07 AM -28.0726 148.6070 342° North 482 555 36,300 -59 Level Aus ATC (RADAR)
Sun 07:36:15 AM -27.9415 148.5332 334° Northwest 458 527 36,200 -47 Descending Aus ATC (RADAR)
Sun 07:37:15 AM -27.8358 148.4664 331° Northwest 439 505 36,200  Level Aus ATC (RADAR)
Sun 07:37:55 AM -27.7578 148.4204 332° Northwest 456 525 36,200  Level Aus ATC (RADAR)
Sun 07:38:30 AM -27.6904 148.3804 332° Northwest 462 532 36,200  Level Aus ATC (RADAR)
Sun 07:39:05 AM -27.6248 148.3409 332° Northwest 460 529 36,200  Level Aus ATC (RADAR)
Sun 07:39:35 AM -27.5684 148.3073 332° Northwest 458 527 36,200  Level Aus ATC (RADAR)
Sun 07:40:10 AM -27.5028 148.2685 332° Northwest 456 525 36,200 71 Level Aus ATC (RADAR)
Sun 07:41:00 AM -27.4088 148.2116 332° Northwest 459 528 36,300 71 Climbing Aus ATC (RADAR)
Sun 07:41:35 AM -27.3305 148.1722 336° Northwest 481 554 36,300  Level Aus ATC (RADAR)
Sun 07:42:10 AM -27.2654 148.1329 332° Northwest 461 531 36,300 -75 Level Aus ATC (RADAR)
Sun 07:42:55 AM -27.1784 148.0817 332° Northwest 468 539 36,200 -75 Descending Aus ATC (RADAR)
Sun 07:43:30 AM -27.1111 148.0423 332° Northwest 467 537 36,200  Level Aus ATC (RADAR)
Sun 07:45:25 AM -26.8911 147.9129 332° Northwest 464 534 36,200  Level Aus ATC (RADAR)
Sun 07:46:10 AM -26.8045 147.8623 332° Northwest 466 536 36,200  Level Aus ATC (RADAR)
Sun 07:46:59 AM -26.7084 147.8062 332° Northwest 465 535 36,200  Level Aus ATC (RADAR)
Sun 07:48:04 AM -26.5835 147.7337 333° Northwest 467 537 36,200  Level Aus ATC (RADAR)
Sun 07:48:34 AM -26.5258 147.7002 333° Northwest 467 537 36,200  Level Aus ATC (RADAR)
Sun 07:49:14 AM -26.4490 147.6553 332° Northwest 466 536 36,200  Level Aus ATC (RADAR)
Sun 07:49:59 AM -26.3627 147.6053 333° Northwest 465 535 36,200 52 Level Aus ATC (RADAR)
Sun 07:51:09 AM -26.2232 147.5250 333° Northwest 478 550 36,300 60 Climbing Aus ATC (RADAR)
Sun 07:51:39 AM -26.1640 147.4910 333° Northwest 478 550 36,300  Level Aus ATC (RADAR)
Sun 07:52:19 AM -26.0852 147.4458 333° Northwest 478 550 36,300  Level Aus ATC (RADAR)
Sun 07:53:04 AM -25.9969 147.3955 333° Northwest 476 548 36,300 -55 Level Aus ATC (RADAR)
Sun 07:54:09 AM -25.8662 147.3196 332° Northwest 484 557 36,200 -57 Descending Aus ATC (RADAR)
Sun 07:54:49 AM -25.7881 147.2746 333° Northwest 481 554 36,200  Level Aus ATC (RADAR)
Sun 07:55:24 AM -25.7196 147.2358 333° Northwest 478 550 36,200  Level Aus ATC (RADAR)
Sun 07:56:19 AM -25.6134 147.1755 333° Northwest 473 544 36,200  Level Aus ATC (RADAR)
Sun 07:57:19 AM -25.4963 147.1084 333° Northwest 473 544 36,200 -174 Level Aus ATC (RADAR)
Sun 07:57:28 AM -25.4810 147.0990 333° Northwest 478 550 36,000 -167 Descending FlightAware ADS-B
Sun 07:57:55 AM -25.4300 147.0700 333° Northwest 479 551 36,100 581 Climbing FlightAware ADS-B
Sun 07:57:59 AM -25.4180 147.0639 333° Northwest 474 545 36,300  Climbing Aus ATC (RADAR)
Sun 07:58:34 AM -25.3650 147.0320 332° Northwest 479 551 36,100 -169 Descending FlightAware ADS-B
Sun 07:59:10 AM -25.3330 147.0150 334° Northwest 479 551 36,100  Level FlightAware ADS-B
Sun 07:59:46 AM -25.2730 146.9790 332° Northwest 479 551 36,100 145 Level FlightAware ADS-B
Sun 08:00:33 AM -25.1098 146.8897 332° Northwest 481 554 36,300  Climbing Aus ATC (RADAR)
Sun 08:00:37 AM -25.1300 146.9000 332° Northwest 482 555 36,100 600 Descending FlightAware ADS-B
Sun 08:01:23 AM -25.0097 146.8331 332° Northwest 483 556 36,800 500 Climbing Aus ATC (RADAR)
Sun 08:01:25 AM -25.0110 146.8330 332° Northwest 487 560 36,500 1,029 Descending FlightAware ADS-B
Sun 08:01:58 AM -24.9413 146.7939 332° Northwest 482 555 37,400 1,543 Climbing Aus ATC (RADAR)
Sun 08:02:00 AM -24.9380 146.7920 332° Northwest 484 557 37,400 1,371 Level FlightAware ADS-B
Sun 08:02:33 AM -24.8712 146.7552 332° Northwest 483 556 38,200 1,000 Climbing Aus ATC (RADAR)
Sun 08:02:36 AM -24.8670 146.7520 332° Northwest 480 552 38,000 -444 Descending FlightAware ADS-B
Sun 08:03:00 AM -24.8190 146.7250 332° Northwest 482 555 38,000 324 Level FlightAware ADS-B
Sun 08:03:13 AM -24.7919 146.7102 332° Northwest 481 554 38,200 250 Climbing Aus ATC (RADAR)
Sun 08:03:48 AM -24.7223 146.6705 332° Northwest 484 557 38,200 -245 Level Aus ATC (RADAR)
Sun 08:04:02 AM -24.6950 146.6550 332° Northwest 486 559 38,000 -255 Descending FlightAware ADS-B
Sun 08:04:35 AM -24.6300 146.6180 333° Northwest 487 560 38,000  Level FlightAware ADS-B
Sun 08:05:11 AM -24.5570 146.5780 334° Northwest 488 562 38,000  Level FlightAware ADS-B
Sun 08:05:42 AM -24.4940 146.5430 333° Northwest 489 563 38,000  Level FlightAware ADS-B
Sun 08:06:15 AM -24.4280 146.5060 333° Northwest 491 565 38,000 333 Level FlightAware ADS-B
Sun 08:06:18 AM -24.4202 146.5023 333° Northwest 489 563 38,200 364 Climbing Aus ATC (RADAR)
Sun 08:06:48 AM -24.3592 146.4682 333° Northwest 492 566 38,200 -300 Level Aus ATC (RADAR)
Sun 08:06:58 AM -24.3400 146.4570 333° Northwest 492 566 38,000 -279 Descending FlightAware ADS-B
Sun 08:07:31 AM -24.2740 146.4200 333° Northwest 494 568 38,000  Level FlightAware ADS-B
Sun 08:08:08 AM -24.1970 146.3770 333° Northwest 495 570 38,000  Level FlightAware ADS-B
Sun 08:08:44 AM -24.1230 146.3360 333° Northwest 497 572 38,000 88 Level FlightAware ADS-B
Sun 08:09:16 AM -24.0570 146.3000 334° Northwest 498 573 38,100 90 Climbing FlightAware ADS-B
Sun 08:09:51 AM -23.9860 146.2600 333° Northwest 497 572 38,100  Level FlightAware ADS-B
Sun 08:10:28 AM -23.9090 146.2180 333° Northwest 496 571 38,100 -87 Level FlightAware ADS-B
Sun 08:11:00 AM -23.8420 146.1810 333° Northwest 495 570 38,000 -91 Descending FlightAware ADS-B
Sun 08:11:34 AM -23.7730 146.1430 333° Northwest 495 570 38,000  Level FlightAware ADS-B
Sun 08:12:10 AM -23.7010 146.1030 333° Northwest 493 567 38,000  Level FlightAware ADS-B
Sun 08:12:45 AM -23.6290 146.0640 333° Northwest 494 568 38,000 324 Level FlightAware ADS-B
Sun 08:12:47 AM -23.6306 146.0702 333° Northwest 485 558 38,200  Climbing Aus ATC (RADAR)
Sun 08:13:22 AM -23.5530 146.0210 333° Northwest 493 567 38,000  Descending FlightAware ADS-B
Sun 08:13:57 AM -23.4813 145.9839 333° Northwest 503 579 38,200  Climbing Aus ATC (RADAR)
Sun 08:13:58 AM -23.4790 145.9810 333° Northwest 493 567 38,000 -364 Descending FlightAware ADS-B
Sun 08:14:30 AM -23.4130 145.9450 333° Northwest 491 565 38,000 353 Level FlightAware ADS-B
Sun 08:14:32 AM -23.4105 145.9455 333° Northwest 492 566 38,200  Climbing Aus ATC (RADAR)
Sun 08:15:06 AM -23.3450 145.9080 333° Northwest 493 567 38,000 -174 Descending FlightAware ADS-B
Sun 08:15:41 AM -23.2710 145.8670 333° Northwest 495 570 38,000 293 Level FlightAware ADS-B
Sun 08:15:47 AM -23.2579 145.8623 333° Northwest 490 564 38,200  Climbing Aus ATC (RADAR)
Sun 08:16:18 AM -23.1930 145.8250 334° Northwest 496 571 38,000 -95 Descending FlightAware ADS-B
Sun 08:16:50 AM -23.1270 145.7890 333° Northwest 497 572 38,100 88 Climbing FlightAware ADS-B
Sun 08:17:26 AM -23.0530 145.7480 333° Northwest 499 574 38,100  Level FlightAware ADS-B
Sun 08:17:59 AM -22.9860 145.7120 334° Northwest 502 578 38,100  Level FlightAware ADS-B
Sun 08:18:35 AM -22.9110 145.6710 333° Northwest 503 579 38,100  Level FlightAware ADS-B
Sun 08:19:07 AM -22.8440 145.6350 334° Northwest 502 578 38,100  Level FlightAware ADS-B
Sun 08:19:42 AM -22.7710 145.5950 333° Northwest 500 575 38,100 67 Level FlightAware ADS-B
Sun 08:20:37 AM -22.6577 145.5350 333° Northwest 498 573 38,200 67 Climbing Aus ATC (RADAR)
Sun 08:21:12 AM -22.5859 145.4959 333° Northwest 497 572 38,200  Level Aus ATC (RADAR)
Sun 08:21:57 AM -22.4935 145.4462 334° Northwest 496 571 38,200 -68 Level Aus ATC (RADAR)
Sun 08:22:40 AM -22.4580 145.4230 334° Northwest 499 574 38,100 -148 Descending FlightAware ADS-B
Sun 08:23:18 AM -22.3680 145.3780 335° Northwest 494 568 38,000 -82 Descending FlightAware ADS-B
Sun 08:23:53 AM -22.2920 145.3360 333° Northwest 494 568 38,000  Level FlightAware ADS-B
Sun 08:24:31 AM -22.2000 145.2880 334° Northwest 497 572 38,000  Level FlightAware ADS-B
Sun 08:25:05 AM -22.1100 145.2390 333° Northwest 500 575 38,000 225 Level FlightAware ADS-B
Sun 08:25:51 AM -22.0099 145.1861 333° Northwest 500 575 38,300 128 Climbing Aus ATC (RADAR)
Sun 08:25:52 AM -22.0180 145.1890 333° Northwest 500 575 38,100 -364 Descending FlightAware ADS-B
Sun 08:26:24 AM -21.9430 145.1500 334° Northwest 504 580 38,100  Level FlightAware ADS-B
Sun 08:26:59 AM -21.8720 145.1120 334° Northwest 504 580 38,100 167 Level FlightAware ADS-B
Sun 08:27:36 AM -21.7899 145.0688 334° Northwest 507 583 38,300  Climbing Aus ATC (RADAR)
Sun 08:27:36 AM -21.7910 145.0690 334° Northwest 506 582 38,100 -375 Descending FlightAware ADS-B
Sun 08:28:08 AM -21.7250 145.0330 334° Northwest 506 582 38,100 343 Level FlightAware ADS-B
Sun 08:28:11 AM -21.7162 145.0298 334° Northwest 509 586 38,300  Climbing Aus ATC (RADAR)
Sun 08:28:44 AM -21.6480 144.9930 334° Northwest 507 583 38,100 -343 Descending FlightAware ADS-B
Sun 08:28:46 AM -21.6434 144.9907 334° Northwest 504 580 38,100 -167 Level Aus ATC (RADAR)
Sun 08:29:20 AM -21.5720 144.9520 334° Northwest 508 585 38,000 171 Descending FlightAware ADS-B
Sun 08:29:21 AM -21.5697 144.9514 334° Northwest 507 583 38,200  Climbing Aus ATC (RADAR)
Sun 08:29:53 AM -21.5020 144.9150 334° Northwest 508 585 38,000  Descending FlightAware ADS-B
Sun 08:29:56 AM -21.4961 144.9123 334° Northwest 506 582 38,200  Climbing Aus ATC (RADAR)
Sun 08:30:29 AM -21.4260 144.8740 334° Northwest 508 585 38,000  Descending FlightAware ADS-B
Sun 08:30:31 AM -21.4221 144.8729 334° Northwest 508 585 38,200  Climbing Aus ATC (RADAR)
Sun 08:31:04 AM -21.3530 144.8360 334° Northwest 508 585 38,000  Descending FlightAware ADS-B
Sun 08:31:06 AM -21.3482 144.8334 334° Northwest 510 587 38,200 162 Climbing Aus ATC (RADAR)
Sun 08:31:41 AM -21.2740 144.7940 334° Northwest 507 583 38,100 -88 Descending FlightAware ADS-B
Sun 08:32:14 AM -21.2060 144.7580 334° Northwest 505 581 38,100 -86 Level FlightAware ADS-B
Sun 08:32:51 AM -21.1260 144.7160 334° Northwest 503 579 38,000 -82 Descending FlightAware ADS-B
Sun 08:33:27 AM -21.0510 144.6760 334° Northwest 500 575 38,000  Level FlightAware ADS-B
Sun 08:33:59 AM -20.9850 144.6410 334° Northwest 499 574 38,000  Level FlightAware ADS-B
Sun 08:34:35 AM -20.9110 144.6020 334° Northwest 498 573 38,000  Level FlightAware ADS-B
Sun 08:35:10 AM -20.8390 144.5650 334° Northwest 496 571 38,000  Level FlightAware ADS-B
Sun 08:35:43 AM -20.7700 144.5280 333° Northwest 495 570 38,000  Level FlightAware ADS-B
Sun 08:36:19 AM -20.6970 144.4900 334° Northwest 495 570 38,000 179 Level FlightAware ADS-B
Sun 08:36:50 AM -20.6318 144.4558 334° Northwest 494 568 38,200  Climbing Aus ATC (RADAR)
Sun 08:36:55 AM -20.6210 144.4500 334° Northwest 495 570 38,000 -167 Descending FlightAware ADS-B
Sun 08:37:26 AM -20.5590 144.4180 334° Northwest 494 568 38,100 88 Climbing FlightAware ADS-B
Sun 08:38:03 AM -20.4830 144.3780 334° Northwest 494 568 38,100  Level FlightAware ADS-B
Sun 08:38:49 AM -20.4060 144.3370 333° Northwest 494 568 38,100  Level FlightAware ADS-B
Sun 08:39:25 AM -20.3440 144.3030 333° Northwest 494 568 38,100 146 Level FlightAware ADS-B
Sun 08:39:30 AM -20.3030 144.2840 333° Northwest 492 566 38,200 -176 Climbing Aus ATC (RADAR)
Sun 08:39:59 AM -20.2430 144.2530 333° Northwest 495 570 38,000  Descending FlightAware ADS-B
Sun 08:40:05 AM -20.2306 144.2461 333° Northwest 494 568 38,200  Climbing Aus ATC (RADAR)
Sun 08:40:37 AM -20.1660 144.2120 333° Northwest 496 571 38,000  Descending FlightAware ADS-B
Sun 08:40:40 AM -20.1589 144.2085 333° Northwest 494 568 38,200  Climbing Aus ATC (RADAR)
Sun 08:41:13 AM -20.0910 144.1730 333° Northwest 495 570 38,000  Descending FlightAware ADS-B
Sun 08:41:15 AM -20.0866 144.1710 333° Northwest 496 571 38,200  Climbing Aus ATC (RADAR)
Sun 08:41:46 AM -20.0230 144.1380 334° Northwest 495 570 38,000 -194 Descending FlightAware ADS-B
Sun 08:42:17 AM -19.9590 144.1050 334° Northwest 496 571 38,000  Level FlightAware ADS-B
Sun 08:42:55 AM -19.8800 144.0640 334° Northwest 495 570 38,000  Level FlightAware ADS-B
Sun 08:43:28 AM -19.8130 144.0300 334° Northwest 496 571 38,000  Level FlightAware ADS-B
Sun 08:44:01 AM -19.7430 143.9930 334° Northwest 495 570 38,000  Level FlightAware ADS-B
Sun 08:44:41 AM -19.6740 143.9570 334° Northwest 495 570 38,000  Level FlightAware ADS-B
Sun 08:45:18 AM -19.6100 143.9220 333° Northwest 495 570 38,000 154 Level FlightAware ADS-B
Sun 08:45:59 AM -19.4981 143.8665 333° Northwest 494 568 38,200  Climbing Aus ATC (RADAR)
Sun 08:46:10 AM -19.4850 143.8600 333° Northwest 496 571 38,000 -102 Descending FlightAware ADS-B
Sun 08:46:58 AM -19.3960 143.8140 334° Northwest 497 572 38,100 71 Climbing FlightAware ADS-B
Sun 08:47:34 AM -19.3330 143.7810 334° Northwest 497 572 38,100  Level FlightAware ADS-B
Sun 08:48:11 AM -19.2680 143.7480 334° Northwest 497 572 38,100 300 Level FlightAware ADS-B
Sun 08:48:14 AM -19.2184 143.7221 334° Northwest 493 567 38,300 158 Climbing Aus ATC (RADAR)
Sun 08:48:49 AM -19.1464 143.6858 334° Northwest 491 565 38,200 -273 Descending Aus ATC (RADAR)
Sun 08:48:58 AM -19.3990 143.8160 334° Northwest 497 572 38,100 -343 Descending FlightAware ADS-B
Sun 08:49:24 AM -19.0850 143.6540 334° Northwest 490 564 38,000 98 Descending FlightAware ADS-B
Sun 08:49:59 AM -19.0033 143.6125 334° Northwest 487 560 38,200  Climbing Aus ATC (RADAR)
Sun 08:50:04 AM -19.0020 143.6120 334° Northwest 489 563 38,000 -308 Descending FlightAware ADS-B
Sun 08:50:38 AM -18.9250 143.5720 334° Northwest 487 560 38,000 343 Level FlightAware ADS-B
Sun 08:50:39 AM -18.9217 143.5708 334° Northwest 485 558 38,200 387 Climbing Aus ATC (RADAR)
Sun 08:51:09 AM -18.8606 143.5395 334° Northwest 488 562 38,200 -333 Level Aus ATC (RADAR)
Sun 08:51:15 AM -18.8520 143.5350 334° Northwest 486 559 38,000 -308 Descending FlightAware ADS-B
Sun 08:51:48 AM -18.7890 143.5030 334° Northwest 486 559 38,000  Level FlightAware ADS-B
Sun 08:52:23 AM -18.7120 143.4640 334° Northwest 487 560 38,000 293 Level FlightAware ADS-B
Sun 08:52:29 AM -18.6987 143.4568 334° Northwest 486 559 38,200  Climbing Aus ATC (RADAR)
Sun 08:52:57 AM -18.6540 143.4340 334° Northwest 489 563 38,000  Descending FlightAware ADS-B
Sun 08:52:59 AM -18.6382 143.4259 334° Northwest 484 557 38,200  Climbing Aus ATC (RADAR)
Sun 08:53:32 AM -18.5800 143.3960 334° Northwest 491 565 38,000  Descending FlightAware ADS-B
Sun 08:53:34 AM -18.5663 143.3896 334° Northwest 488 562 38,200 486 Climbing Aus ATC (RADAR)
Sun 08:54:09 AM -18.4943 143.3531 334° Northwest 491 565 38,300 -167 Climbing Aus ATC (RADAR)
Sun 08:54:10 AM -18.5020 143.3570 334° Northwest 493 567 38,100 -375 Descending FlightAware ADS-B
Sun 08:54:41 AM -18.4300 143.3200 334° Northwest 495 570 38,100 353 Level FlightAware ADS-B
Sun 08:54:44 AM -18.4218 143.3162 334° Northwest 495 570 38,300  Climbing Aus ATC (RADAR)
Sun 08:55:17 AM -18.3560 143.2820 334° Northwest 496 571 38,100  Descending FlightAware ADS-B
Sun 08:55:19 AM -18.3495 143.2796 334° Northwest 495 570 38,300 286 Climbing Aus ATC (RADAR)
Sun 08:55:59 AM -18.2666 143.2369 334° Northwest 496 571 38,300 -235 Level Aus ATC (RADAR)
Sun 08:56:10 AM -18.3120 143.2600 334° Northwest 496 571 38,100 -211 Descending FlightAware ADS-B
Sun 08:56:56 AM -18.1550 143.1740 333° Northwest 496 571 38,100  Level FlightAware ADS-B
Sun 08:57:32 AM -18.0910 143.1390 333° Northwest 496 571 38,100 78 Level FlightAware ADS-B
Sun 08:58:13 AM -17.9921 143.0863 333° Northwest 494 568 38,200  Climbing Aus ATC (RADAR)
Sun 08:58:22 AM -18.0860 143.1360 333° Northwest 495 570 38,100 -133 Descending FlightAware ADS-B
Sun 08:58:58 AM -18.0240 143.1020 332° Northwest 495 570 38,100  Level FlightAware ADS-B
Sun 08:59:46 AM -17.9420 143.0560 332° Northwest 495 570 38,100  Level FlightAware ADS-B
Sun 08:59:58 AM -17.9210 143.0440 332° Northwest 495 570 38,100 83 Level FlightAware ADS-B
Sun 09:00:58 AM -17.6597 142.9067 332° Northwest 486 559 38,200  Climbing Aus ATC (RADAR)
Sun 09:01:40 AM -17.7460 142.9460 332° Northwest 495 570 38,100 -76 Descending FlightAware ADS-B
Sun 09:02:17 AM -17.6820 142.9110 332° Northwest 495 570 38,100  Level FlightAware ADS-B
Sun 09:02:55 AM -17.6170 142.8740 332° Northwest 495 570 38,100  Level FlightAware ADS-B
Sun 09:03:31 AM -17.5550 142.8400 332° Northwest 495 570 38,100  Level FlightAware ADS-B
Sun 09:04:07 AM -17.4930 142.8050 332° Northwest 495 570 38,100 143 Level FlightAware ADS-B
Sun 09:04:13 AM -17.2641 142.6938 332° Northwest 493 567 38,200  Climbing Aus ATC (RADAR)
Sun 09:04:50 AM -17.4190 142.7640 332° Northwest 495 570 38,100 -81 Descending FlightAware ADS-B
Sun 09:05:27 AM -17.3560 142.7290 332° Northwest 495 570 38,100  Level FlightAware ADS-B
Sun 09:06:15 AM -17.2730 142.6830 332° Northwest 495 570 38,100  Level FlightAware ADS-B
Sun 09:06:40 AM -17.2300 142.6590 332° Northwest 495 570 38,100 82 Level FlightAware ADS-B
Sun 09:07:28 AM -16.8702 142.4806 332° Northwest 489 563 38,200  Climbing Aus ATC (RADAR)
Sun 09:07:28 AM -17.1480 142.6130 332° Northwest 495 570 38,100  Descending FlightAware ADS-B
Sun 09:08:32 AM -16.7383 142.4103 332° Northwest 487 560 38,200 47 Climbing Aus ATC (RADAR)
Sun 09:09:37 AM -16.6086 142.3411 333° Northwest 482 555 38,200  Level Aus ATC (RADAR)
Sun 09:10:37 AM -16.4913 142.2780 333° Northwest 476 548 38,200  Level Aus ATC (RADAR)
Sun 09:11:47 AM -16.3525 142.2044 333° Northwest 478 550 38,200  Level Aus ATC (RADAR)
Sun 09:12:52 AM -16.2236 142.1349 333° Northwest 482 555 38,200 46 Level Aus ATC (RADAR)
Sun 09:13:57 AM -16.0920 142.0659 333° Northwest 487 560 38,300  Climbing Aus ATC (RADAR)
Sun 09:15:02 AM -15.9612 141.9962 333° Northwest 485 558 38,200 -46 Descending Aus ATC (RADAR)
Sun 09:16:07 AM -15.8297 141.9258 333° Northwest 487 560 38,200 -48 Level Aus ATC (RADAR)
Sun 09:17:07 AM -15.7063 141.8631 334° Northwest 488 562 38,100 -46 Descending Aus ATC (RADAR)
Sun 09:18:17 AM -15.5632 141.7908 334° Northwest 488 562 38,100  Level Aus ATC (RADAR)
Sun 09:19:22 AM -15.4306 141.7232 334° Northwest 489 563 38,100  Level Aus ATC (RADAR)
Sun 09:20:27 AM -15.3014 141.6488 331° Northwest 491 565 38,100  Level Aus ATC (RADAR)
Sun 09:21:31 AM -15.1757 141.5737 330° Northwest 484 557 38,100  Level Aus ATC (RADAR)
Sun 09:22:31 AM -15.0570 141.5058 331° Northwest 485 558 38,100  Level Aus ATC (RADAR)
Sun 09:23:31 AM -14.9397 141.4380 331° Northwest 482 555 38,100  Level Aus ATC (RADAR)
Sun 09:27:23 AM -14.5040 141.1901 324° Northwest 38,000  Descending Aus ATC (Calculated)
Sun 09:28:31 AM -14.3931 141.1272 324° Northwest 38,000  Level Aus ATC (Calculated)
Sun 09:29:00 AM -14.3274 141.0899 331° Northwest  Level FlightAware Approximate
Sun 09:30:00 AM -14.2310 141.0353 331° Northwest  Level FlightAware Approximate
Sun 09:31:00 AM -14.1217 140.9735 331° Northwest  Level FlightAware Approximate
Sun 09:32:00 AM -14.0124 140.9117 331° Northwest  Level FlightAware Approximate
Sun 09:33:00 AM -13.9031 140.8500 331° Northwest  Level FlightAware Approximate
Sun 09:33:30 AM -13.8020 140.7929 323° Northwest 38,000  Level Aus ATC (Calculated)
Sun 09:34:00 AM -13.7938 140.7883 331° Northwest  Level FlightAware Approximate
Sun 09:35:00 AM -13.6379 140.7005 331° Northwest  Level FlightAware Approximate
Sun 09:36:00 AM -13.5285 140.6390 331° Northwest  Level FlightAware Approximate
Sun 09:37:00 AM -13.4191 140.5775 331° Northwest  Level FlightAware Approximate
Sun 09:38:00 AM -13.3097 140.5161 331° Northwest  Level FlightAware Approximate
Sun 09:38:25 AM -13.2229 140.4674 323° Northwest 38,000  Level Aus ATC (Calculated)
Sun 09:40:00 AM -13.0496 140.3704 331° Northwest  Level FlightAware Approximate
Sun 09:41:00 AM -12.9402 140.3091 331° Northwest  Level FlightAware Approximate
Sun 09:42:00 AM -12.8307 140.2480 331° Northwest  Level FlightAware Approximate
Sun 09:43:00 AM -12.7212 140.1869 331° Northwest  Level FlightAware Approximate
Sun 09:43:25 AM -12.5835 140.1101 323° Northwest 38,000  Level Aus ATC (Calculated)
Sun 09:44:00 AM -12.6117 140.1258 331° Northwest  Level FlightAware Approximate
Sun 09:45:00 AM -12.4101 140.0135 331° Northwest  Level FlightAware Approximate
Sun 09:46:00 AM -12.3005 139.9526 331° Northwest  Level FlightAware Approximate
Sun 09:47:00 AM -12.1910 139.8917 331° Northwest  Level FlightAware Approximate
Sun 09:48:00 AM -12.0814 139.8309 332° Northwest  Level FlightAware Approximate
Sun 09:48:24 AM -11.9702 139.7692 323° Northwest 38,000  Level Aus ATC (Calculated)
Sun 09:49:00 AM -11.9718 139.7701 332° Northwest  Level FlightAware Approximate
Sun 09:50:00 AM -11.7949 139.6721 332° Northwest  Level FlightAware Approximate
Sun 09:51:00 AM -11.6853 139.6115 332° Northwest  Level FlightAware Approximate
Sun 09:52:00 AM -11.5756 139.5509 332° Northwest  Level FlightAware Approximate
Sun 09:53:00 AM -11.4660 139.4903 332° Northwest  Level FlightAware Approximate
Sun 09:53:24 AM -11.3949 139.4511 323° Northwest 38,000  Level Aus ATC (Calculated)
Sun 09:55:00 AM -11.2194 139.3544 332° Northwest  Level FlightAware Approximate
Sun 09:56:00 AM -11.1097 139.2940 332° Northwest  Level FlightAware Approximate
Sun 09:57:00 AM -11.0000 139.2336 332° Northwest  Level FlightAware Approximate
Sun 09:58:00 AM -10.8903 139.1733 332° Northwest  Level FlightAware Approximate
Sun 09:58:00 AM -10.8406 139.1464 323° Northwest 38,000  Level Aus ATC (Calculated)
Sun 09:59:00 AM -10.9504 139.2063 152° Southeast  Level FlightAware Approximate
Sun 09:59:50 AM -10.6549 139.0446 323° Northwest 38,000  Level Aus ATC (Calculated)
Sun 10:01:00 AM -10.7830 139.1147 152° Southeast  Level FlightAware Approximate
Sun 10:02:00 AM -10.8928 139.1748 152° Southeast  Level FlightAware Approximate
Sun 10:02:48 AM -10.3183 138.8604 322° Northwest 38,000  Level Aus ATC (Calculated)
Sun 10:03:00 AM -11.0026 139.2349 152° Southeast  Level FlightAware Approximate
Sun 10:04:00 AM -10.1983 138.7696 332° Northwest  Level Estimated
Sun 10:05:00 AM -10.0876 138.7113 333° Northwest  Level FlightAware Approximate
Sun 10:06:00 AM -9.9770 138.6530 333° Northwest  Level FlightAware Approximate
Sun 10:06:42 AM -9.8623 138.6116 322° Northwest 38,000  Level Aus ATC (Calculated)
Sun 10:07:00 AM -9.8663 138.5948 333° Northwest  Level FlightAware Approximate
Sun 10:07:47 AM -9.7368 138.5433 322° Northwest 38,000  Level Aus ATC (Calculated)
Sun 10:08:00 AM -9.7194 138.5339 332° Northwest  Level FlightAware Approximate
Sun 10:09:00 AM -9.6032 138.4706 332° Northwest  Level FlightAware Approximate
Sun 10:10:00 AM -9.4933 138.4109 332° Northwest  Level FlightAware Approximate
Sun 10:10:00 AM -9.4624 138.3941 322° Northwest 38,000  Level Aus ATC (Calculated)
Sun 10:11:00 AM -9.3525 138.3345 332° Northwest  Level FlightAware Approximate
Sun 10:12:00 AM -9.2426 138.2748 332° Northwest  Level FlightAware Approximate
Sun 10:12:12 AM -9.1887 138.2456 322° Northwest 38,000  Level Aus ATC (Calculated)
Sun 10:13:00 AM -9.1327 138.2152 332° Northwest  Level FlightAware Approximate
Sun 10:14:00 AM -8.9909 138.1384 332° Northwest  Level FlightAware Approximate
Sun 10:15:00 AM -8.8809 138.0789 332° Northwest  Level FlightAware Approximate
Sun 10:16:00 AM -8.7710 138.0194 332° Northwest  Level FlightAware Approximate
Sun 10:17:00 AM -8.8809 138.0789 152° Southeast  Level FlightAware Approximate
Sun 10:18:00 AM -8.7710 138.0194 332° Northwest  Level FlightAware Approximate
Sun 10:19:00 AM -8.8809 138.0789 152° Southeast  Level FlightAware Approximate
Sun 10:20:00 AM -8.7710 138.0194 332° Northwest  Level FlightAware Approximate
Sun 10:21:00 AM -8.8426 138.0545 323° Northwest  Level FlightAware Approximate
Sun 10:22:00 AM -8.7436 137.9778 323° Northwest  Level FlightAware Approximate
Sun 10:23:00 AM -8.6446 137.9012 323° Northwest  Level FlightAware Approximate
Sun 10:24:00 AM -8.5456 137.8246 323° Northwest  Level FlightAware Approximate
Sun 10:25:00 AM -8.4465 137.7481 323° Northwest  Level FlightAware Approximate
Sun 10:26:00 AM -8.3474 137.6716 323° Northwest  Level FlightAware Approximate
Sun 10:27:00 AM -8.2484 137.5951 323° Northwest  Level FlightAware Approximate
Sun 10:28:00 AM -8.1493 137.5187 323° Northwest  Level FlightAware Approximate
Sun 10:29:00 AM -8.0502 137.4423 323° Northwest  Level FlightAware Approximate
Sun 10:30:00 AM -7.9510 137.3660 323° Northwest  Level FlightAware Approximate
Sun 10:31:00 AM -7.8519 137.2897 323° Northwest  Level FlightAware Approximate
Sun 10:32:00 AM -7.7528 137.2134 323° Northwest  Level FlightAware Approximate
Sun 10:33:00 AM -7.6536 137.1371 323° Northwest  Level FlightAware Approximate
Sun 10:34:00 AM -7.5544 137.0609 323° Northwest  Level FlightAware Approximate
Sun 10:35:00 AM -7.4552 136.9848 323° Northwest  Level FlightAware Approximate
Sun 10:36:00 AM -7.3561 136.9086 323° Northwest  Level FlightAware Approximate
Sun 10:37:00 AM -7.2568 136.8325 323° Northwest  Level FlightAware Approximate
Sun 10:38:00 AM -7.1576 136.7565 323° Northwest  Level FlightAware Approximate
Sun 10:39:00 AM -7.0584 136.6804 323° Northwest  Level FlightAware Approximate
Sun 10:40:00 AM -6.9591 136.6044 323° Northwest  Level FlightAware Approximate
Sun 10:41:00 AM -6.8599 136.5285 323° Northwest  Level FlightAware Approximate
Sun 10:42:00 AM -6.7606 136.4525 323° Northwest  Level FlightAware Approximate
Sun 10:43:00 AM -6.6613 136.3766 323° Northwest  Level FlightAware Approximate
Sun 10:44:00 AM -6.5620 136.3007 323° Northwest  Level FlightAware Approximate
Sun 10:45:00 AM -6.4627 136.2249 323° Northwest  Level FlightAware Approximate
Sun 10:46:00 AM -6.3634 136.1491 323° Northwest  Level FlightAware Approximate
Sun 10:47:00 AM -6.2641 136.0733 323° Northwest  Level FlightAware Approximate
Sun 10:48:00 AM -6.1647 135.9975 323° Northwest  Level FlightAware Approximate
Sun 10:49:00 AM -6.0654 135.9218 323° Northwest  Level FlightAware Approximate
Sun 10:50:00 AM -5.9660 135.8461 323° Northwest  Level FlightAware Approximate
Sun 10:51:00 AM -5.8666 135.7704 323° Northwest  Level FlightAware Approximate
Sun 10:52:00 AM -5.7673 135.6948 323° Northwest  Level FlightAware Approximate
Sun 10:53:00 AM -5.6679 135.6192 323° Northwest  Level FlightAware Approximate
Sun 10:54:00 AM -5.5685 135.5436 323° Northwest  Level FlightAware Approximate
Sun 10:55:00 AM -5.4690 135.4680 323° Northwest  Level FlightAware Approximate
Sun 10:56:00 AM -5.3696 135.3925 323° Northwest  Level FlightAware Approximate
Sun 10:57:00 AM -5.2702 135.3169 323° Northwest  Level FlightAware Approximate
Sun 10:58:00 AM -5.1708 135.2415 323° Northwest  Level FlightAware Approximate
Sun 10:59:00 AM -5.0713 135.1660 323° Northwest  Level FlightAware Approximate
Sun 11:00:00 AM -4.9718 135.0905 323° Northwest  Level FlightAware Approximate
Sun 11:01:00 AM -4.8724 135.0151 323° Northwest  Level FlightAware Approximate
Sun 11:02:00 AM -4.7729 134.9397 323° Northwest  Level FlightAware Approximate
Sun 11:03:00 AM -4.6734 134.8643 323° Northwest  Level FlightAware Approximate
Sun 11:04:00 AM -4.5739 134.7890 323° Northwest  Level FlightAware Approximate
Sun 11:05:00 AM -4.4744 134.7136 323° Northwest  Level FlightAware Approximate
Sun 11:06:00 AM -4.3749 134.6383 323° Northwest  Level FlightAware Approximate
Sun 11:07:00 AM -4.2754 134.5630 323° Northwest  Level FlightAware Approximate
Sun 11:08:00 AM -4.1759 134.4877 323° Northwest  Level FlightAware Approximate
Sun 11:09:00 AM -4.0764 134.4125 323° Northwest  Level FlightAware Approximate
Sun 11:10:00 AM -3.9768 134.3372 323° Northwest  Level FlightAware Approximate
Sun 11:11:00 AM -3.8773 134.2620 323° Northwest  Level FlightAware Approximate
Sun 11:12:00 AM -3.7777 134.1868 323° Northwest  Level FlightAware Approximate
Sun 11:13:00 AM -3.6782 134.1116 323° Northwest  Level FlightAware Approximate
Sun 11:14:00 AM -3.5786 134.0365 323° Northwest  Level FlightAware Approximate
Sun 11:15:00 AM -3.4790 133.9613 323° Northwest  Level FlightAware Approximate
Sun 11:16:00 AM -3.3795 133.8862 323° Northwest  Level FlightAware Approximate
Sun 11:17:00 AM -3.2799 133.8110 323° Northwest  Level FlightAware Approximate
Sun 11:18:00 AM -3.1803 133.7359 323° Northwest  Level FlightAware Approximate
Sun 11:19:00 AM -3.0807 133.6608 323° Northwest  Level FlightAware Approximate
Sun 11:20:00 AM -2.9816 133.5852 321° Northwest  Level FlightAware Approximate
Sun 11:21:00 AM -2.8843 133.5071 321° Northwest  Level FlightAware Approximate
Sun 11:22:00 AM -2.7871 133.4290 321° Northwest  Level FlightAware Approximate
Sun 11:23:00 AM -2.6898 133.3509 321° Northwest  Level FlightAware Approximate
Sun 11:24:00 AM -2.5926 133.2728 321° Northwest  Level FlightAware Approximate
Sun 11:25:00 AM -2.4953 133.1948 321° Northwest  Level FlightAware Approximate
Sun 11:26:00 AM -2.3980 133.1167 321° Northwest  Level FlightAware Approximate
Sun 11:27:00 AM -2.3008 133.0387 321° Northwest  Level FlightAware Approximate
Sun 11:28:00 AM -2.2035 132.9607 321° Northwest  Level FlightAware Approximate
Sun 11:29:00 AM -2.1062 132.8827 321° Northwest  Level FlightAware Approximate
Sun 11:30:00 AM -2.0089 132.8047 321° Northwest  Level FlightAware Approximate
Sun 11:31:00 AM -1.9116 132.7267 321° Northwest  Level FlightAware Approximate
Sun 11:32:00 AM -1.8144 132.6487 321° Northwest  Level FlightAware Approximate
Sun 11:33:00 AM -1.7171 132.5707 321° Northwest  Level FlightAware Approximate
Sun 11:34:00 AM -1.6198 132.4927 321° Northwest  Level FlightAware Approximate
Sun 11:35:00 AM -1.5225 132.4148 321° Northwest  Level FlightAware Approximate
Sun 11:36:00 AM -1.4252 132.3368 321° Northwest  Level FlightAware Approximate
Sun 11:37:00 AM -1.3279 132.2589 321° Northwest  Level FlightAware Approximate
Sun 11:38:00 AM -1.2306 132.1809 321° Northwest  Level FlightAware Approximate
Sun 11:39:00 AM -1.1332 132.1030 321° Northwest  Level FlightAware Approximate
Sun 11:40:00 AM -1.0359 132.0251 321° Northwest  Level FlightAware Approximate
Sun 11:41:00 AM -0.9386 131.9471 321° Northwest  Level FlightAware Approximate
Sun 11:42:00 AM -0.8413 131.8692 321° Northwest  Level FlightAware Approximate
Sun 11:43:00 AM -0.7440 131.7913 321° Northwest  Level FlightAware Approximate
Sun 11:44:00 AM -0.6467 131.7134 321° Northwest  Level FlightAware Approximate
Sun 11:45:00 AM -0.5494 131.6355 321° Northwest  Level FlightAware Approximate
Sun 11:46:00 AM -0.4520 131.5575 321° Northwest  Level FlightAware Approximate
Sun 11:47:00 AM -0.3547 131.4796 321° Northwest  Level FlightAware Approximate
Sun 11:48:00 AM -0.2574 131.4017 321° Northwest  Level FlightAware Approximate
Sun 11:49:00 AM -0.1601 131.3238 321° Northwest  Level FlightAware Approximate
Sun 11:50:00 AM -0.0628 131.2459 321° Northwest  Level FlightAware Approximate
Sun 11:51:00 AM 0.0346 131.1680 321° Northwest  Level FlightAware Approximate
Sun 11:52:00 AM 0.1319 131.0901 321° Northwest  Level FlightAware Approximate
Sun 11:53:00 AM 0.2292 131.0122 321° Northwest  Level FlightAware Approximate
Sun 11:54:00 AM 0.3265 130.9343 321° Northwest  Level FlightAware Approximate
Sun 11:55:00 AM 0.4238 130.8564 321° Northwest  Level FlightAware Approximate
Sun 11:56:00 AM 0.5212 130.7785 321° Northwest  Level FlightAware Approximate
Sun 11:57:00 AM 0.6185 130.7006 321° Northwest  Level FlightAware Approximate
Sun 11:58:00 AM 0.7158 130.6227 321° Northwest  Level FlightAware Approximate
Sun 11:59:00 AM 0.8131 130.5448 321° Northwest  Level FlightAware Approximate
Sun 12:00:00 PM 0.9104 130.4668 321° Northwest  Level FlightAware Approximate
Sun 12:01:00 PM 1.0077 130.3889 321° Northwest  Level FlightAware Approximate
Sun 12:02:00 PM 1.1050 130.3110 321° Northwest  Level FlightAware Approximate
Sun 12:03:00 PM 1.2024 130.2330 321° Northwest  Level FlightAware Approximate
Sun 12:04:00 PM 1.2997 130.1551 321° Northwest  Level FlightAware Approximate
Sun 12:05:00 PM 1.3970 130.0771 321° Northwest  Level FlightAware Approximate
Sun 12:06:00 PM 1.4943 129.9992 321° Northwest  Level FlightAware Approximate
Sun 12:07:00 PM 1.5916 129.9212 321° Northwest  Level FlightAware Approximate
Sun 12:08:00 PM 1.6889 129.8433 321° Northwest  Level FlightAware Approximate
Sun 12:09:00 PM 1.7862 129.7653 321° Northwest  Level FlightAware Approximate
Sun 12:10:00 PM 1.8835 129.6873 321° Northwest  Level FlightAware Approximate
Sun 12:11:00 PM 1.9812 129.6099 323° Northwest  Level FlightAware Approximate
Sun 12:12:00 PM 2.0807 129.5348 323° Northwest  Level FlightAware Approximate
Sun 12:13:00 PM 2.1803 129.4597 323° Northwest  Level FlightAware Approximate
Sun 12:14:00 PM 2.2798 129.3846 323° Northwest  Level FlightAware Approximate
Sun 12:15:00 PM 2.3793 129.3094 323° Northwest  Level FlightAware Approximate
Sun 12:16:00 PM 2.4788 129.2343 323° Northwest  Level FlightAware Approximate
Sun 12:17:00 PM 2.5783 129.1591 323° Northwest  Level FlightAware Approximate
Sun 12:18:00 PM 2.6778 129.0839 323° Northwest  Level FlightAware Approximate
Sun 12:19:00 PM 2.7773 129.0087 323° Northwest  Level FlightAware Approximate
Sun 12:20:00 PM 2.8768 128.9335 323° Northwest  Level FlightAware Approximate
Sun 12:21:00 PM 2.9763 128.8583 323° Northwest  Level FlightAware Approximate
Sun 12:22:00 PM 3.0758 128.7831 323° Northwest  Level FlightAware Approximate
Sun 12:23:00 PM 3.1753 128.7079 323° Northwest  Level FlightAware Approximate
Sun 12:24:00 PM 3.2748 128.6326 323° Northwest  Level FlightAware Approximate
Sun 12:25:00 PM 3.3742 128.5573 323° Northwest  Level FlightAware Approximate
Sun 12:26:00 PM 3.4737 128.4821 323° Northwest  Level FlightAware Approximate
Sun 12:27:00 PM 3.5732 128.4068 323° Northwest  Level FlightAware Approximate
Sun 12:28:00 PM 3.6726 128.3314 323° Northwest  Level FlightAware Approximate
Sun 12:29:00 PM 3.7720 128.2561 323° Northwest  Level FlightAware Approximate
Sun 12:30:00 PM 3.8715 128.1808 323° Northwest  Level FlightAware Approximate
Sun 12:31:00 PM 3.9709 128.1054 323° Northwest  Level FlightAware Approximate
Sun 12:32:00 PM 4.0699 128.0294 322° Northwest  Level FlightAware Approximate
Sun 12:33:00 PM 4.1687 127.9532 322° Northwest  Level FlightAware Approximate
Sun 12:34:00 PM 4.2675 127.8770 322° Northwest  Level FlightAware Approximate
Sun 12:35:00 PM 4.3663 127.8007 322° Northwest  Level FlightAware Approximate
Sun 12:36:00 PM 4.4651 127.7245 322° Northwest  Level FlightAware Approximate
Sun 12:37:00 PM 4.5639 127.6482 322° Northwest  Level FlightAware Approximate
Sun 12:38:00 PM 4.6626 127.5719 322° Northwest  Level FlightAware Approximate
Sun 12:39:00 PM 4.7614 127.4955 322° Northwest  Level FlightAware Approximate
Sun 12:40:00 PM 4.8601 127.4192 322° Northwest  Level FlightAware Approximate
Sun 12:41:00 PM 4.9589 127.3428 322° Northwest  Level FlightAware Approximate
Sun 12:42:00 PM 5.0576 127.2664 322° Northwest  Level FlightAware Approximate
Sun 12:43:00 PM 5.1564 127.1900 322° Northwest  Level FlightAware Approximate
Sun 12:44:00 PM 5.2551 127.1135 322° Northwest  Level FlightAware Approximate
Sun 12:45:00 PM 5.3538 127.0371 322° Northwest  Level FlightAware Approximate
Sun 12:46:00 PM 5.4525 126.9606 322° Northwest  Level FlightAware Approximate
Sun 12:47:00 PM 5.5512 126.8841 322° Northwest  Level FlightAware Approximate
Sun 12:48:00 PM 5.6498 126.8075 322° Northwest  Level FlightAware Approximate
Sun 12:49:00 PM 5.7485 126.7309 322° Northwest  Level FlightAware Approximate
Sun 12:49:18 PM 7.2230 125.5800 322° Northwest 493 567 38,000  Level FlightAware ADS-B
Sun 12:50:00 PM 5.8472 126.6543 322° Northwest  Level FlightAware Approximate
Sun 12:50:04 PM 7.2970 125.5200 321° Northwest 492 566 38,000  Level FlightAware ADS-B
Sun 12:50:35 PM 7.3570 125.4710 321° Northwest 493 567 38,000 69 Level FlightAware ADS-B
Sun 12:51:31 PM 7.4400 125.4040 321° Northwest 493 567 38,100  Climbing FlightAware ADS-B
Sun 12:52:11 PM 7.5210 125.3380 321° Northwest 493 567 38,000 -79 Descending FlightAware ADS-B
Sun 12:52:47 PM 7.5750 125.2940 321° Northwest 493 567 38,000  Level FlightAware ADS-B
Sun 12:53:34 PM 7.6460 125.2360 321° Northwest 493 567 38,000  Level FlightAware ADS-B
Sun 12:54:20 PM 7.7150 125.1790 321° Northwest 493 567 38,000  Level FlightAware ADS-B
Sun 12:54:56 PM 7.7690 125.1350 321° Northwest 493 567 38,000  Level FlightAware ADS-B
Sun 12:55:32 PM 7.8240 125.0910 322° Northwest 493 567 38,000  Level FlightAware ADS-B
Sun 12:56:08 PM 7.8780 125.0460 320° Northwest 493 567 38,000  Level FlightAware ADS-B
Sun 12:56:44 PM 7.9320 125.0020 321° Northwest 493 567 38,000  Level FlightAware ADS-B
Sun 12:57:22 PM 7.9890 124.9550 321° Northwest 493 567 38,000  Level FlightAware ADS-B
Sun 12:57:58 PM 8.0440 124.9110 322° Northwest 493 567 38,000  Level FlightAware ADS-B
Sun 12:58:46 PM 8.2090 124.7780 321° Northwest 474 545 38,000  Level FlightAware ADS-B
Sun 12:59:22 PM 8.2680 124.7300 321° Northwest 473 544 38,000  Level FlightAware ADS-B
Sun 01:00:31 PM 8.3750 124.6430 321° Northwest 473 544 38,000  Level FlightAware ADS-B
Sun 01:01:24 PM 8.4650 124.5690 321° Northwest 479 551 38,000  Level FlightAware ADS-B
Sun 01:01:58 PM 8.5150 124.5280 321° Northwest 479 551 38,000 95 Level FlightAware ADS-B
Sun 01:02:27 PM 8.5870 124.4600 317° Northwest 482 555 38,100 57 Climbing FlightAware ADS-B
Sun 01:03:44 PM 8.7010 124.3610 319° Northwest 482 555 38,100  Level FlightAware ADS-B
Sun 01:04:30 PM 8.7950 124.2790 319° Northwest 483 556 38,100 -92 Level FlightAware ADS-B
Sun 01:04:49 PM 8.8340 124.2460 320° Northwest 481 554 38,000 -86 Descending FlightAware ADS-B
Sun 01:05:40 PM 8.9130 124.1770 319° Northwest 478 550 38,000  Level FlightAware ADS-B
Sun 01:06:05 PM 8.9610 124.1360 320° Northwest 475 547 38,000  Level FlightAware ADS-B
Sun 01:06:40 PM 9.0200 124.0840 319° Northwest 473 544 38,000  Level FlightAware ADS-B
Sun 01:07:19 PM 9.0830 124.0290 319° Northwest 472 543 38,000  Level FlightAware ADS-B
Sun 01:07:54 PM 9.1410 123.9790 320° Northwest 470 541 38,000  Level FlightAware ADS-B
Sun 01:08:30 PM 9.2000 123.9280 320° Northwest 467 537 38,000  Level FlightAware ADS-B
Sun 01:09:10 PM 9.2660 123.8690 319° Northwest 466 536 38,000  Level FlightAware ADS-B
Sun 01:09:40 PM 9.3170 123.8250 320° Northwest 467 537 38,000  Level FlightAware ADS-B
Sun 01:10:26 PM 9.3900 123.7620 320° Northwest 472 543 38,000 79 Level FlightAware ADS-B
Sun 01:10:56 PM 9.4370 123.7210 319° Northwest 474 545 38,100 83 Climbing FlightAware ADS-B
Sun 01:11:38 PM 9.5090 123.6580 319° Northwest 478 550 38,100  Level FlightAware ADS-B
Sun 01:12:18 PM 9.5760 123.5990 319° Northwest 479 551 38,100  Level FlightAware ADS-B
Sun 01:12:53 PM 9.6330 123.5490 319° Northwest 480 552 38,100 -86 Level FlightAware ADS-B
Sun 01:13:28 PM 9.6970 123.4930 319° Northwest 481 554 38,000 -86 Descending FlightAware ADS-B
Sun 01:14:03 PM 9.7550 123.4430 320° Northwest 482 555 38,000  Level FlightAware ADS-B
Sun 01:14:38 PM 9.8140 123.3910 319° Northwest 481 554 38,000  Level FlightAware ADS-B
Sun 01:15:13 PM 9.8730 123.3390 319° Northwest 481 554 38,000  Level FlightAware ADS-B
Sun 01:15:43 PM 9.9250 123.2940 320° Northwest 481 554 38,000  Level FlightAware ADS-B
Sun 01:16:23 PM 9.9920 123.2350 319° Northwest 481 554 38,000  Level FlightAware ADS-B
Sun 01:16:58 PM 10.0450 123.1880 319° Northwest 482 555 38,000  Level FlightAware ADS-B
Sun 01:17:33 PM 10.1090 123.1320 319° Northwest 486 559 38,000 86 Level FlightAware ADS-B
Sun 01:18:08 PM 10.1680 123.0800 319° Northwest 487 560 38,100 86 Climbing FlightAware ADS-B
Sun 01:18:43 PM 10.2270 123.0290 320° Northwest 488 562 38,100  Level FlightAware ADS-B
Sun 01:19:18 PM 10.2870 122.9760 319° Northwest 492 566 38,100  Level FlightAware ADS-B
Sun 01:19:53 PM 10.3500 122.9210 319° Northwest 495 570 38,100  Level FlightAware ADS-B
Sun 01:19:58 PM 10.3570 122.9140 315° West 494 568 38,100 -67 Level FlightAware ADS-B
Sun 01:21:23 PM 10.4980 122.7900 319° Northwest 488 562 38,000 -48 Descending FlightAware ADS-B
Sun 01:22:02 PM 10.5700 122.7260 319° Northwest 491 565 38,000  Level FlightAware ADS-B
Sun 01:22:32 PM 10.6200 122.6820 319° Northwest 493 567 38,000  Level FlightAware ADS-B
Sun 01:23:17 PM 10.6990 122.6120 319° Northwest 492 566 38,000  Level FlightAware ADS-B
Sun 01:23:50 PM 10.7480 122.5700 320° Northwest 492 566 38,000  Level FlightAware ADS-B
Sun 01:24:42 PM 10.8420 122.4860 319° Northwest 495 570 38,000  Level FlightAware ADS-B
Sun 01:25:17 PM 10.9060 122.4260 317° Northwest 499 574 38,000 86 Level FlightAware ADS-B
Sun 01:25:52 PM 10.9670 122.3680 317° Northwest 499 574 38,100  Climbing FlightAware ADS-B
Sun 01:26:32 PM 11.0310 122.3080 317° Northwest 498 573 38,000  Descending FlightAware ADS-B
Sun 01:27:18 PM 11.1020 122.2400 317° Northwest 480 552 38,100  Climbing FlightAware ADS-B
Sun 01:28:02 PM 11.1650 122.1810 317° Northwest 478 550 38,000 -74 Descending FlightAware ADS-B
Sun 01:28:39 PM 11.2160 122.1320 317° Northwest 478 550 38,000  Level FlightAware ADS-B
Sun 01:29:15 PM 11.2650 122.0850 317° Northwest 478 550 38,000  Level FlightAware ADS-B
Sun 01:29:52 PM 11.3160 122.0370 317° Northwest 478 550 38,000  Level FlightAware ADS-B
Sun 01:30:29 PM 11.3670 121.9890 317° Northwest 478 550 38,000  Level FlightAware ADS-B
Sun 01:31:05 PM 11.4170 121.9410 317° Northwest 478 550 38,000  Level FlightAware ADS-B
Sun 01:31:42 PM 11.4670 121.8930 317° Northwest 478 550 38,000  Level FlightAware ADS-B
Sun 01:32:18 PM 11.5170 121.8460 317° Northwest 478 550 38,000  Level FlightAware ADS-B
Sun 01:32:54 PM 11.5660 121.7990 317° Northwest 478 550 38,000  Level FlightAware ADS-B
Sun 01:33:31 PM 11.6170 121.7500 317° Northwest 478 550 38,000  Level FlightAware ADS-B
Sun 01:34:07 PM 11.6670 121.7030 317° Northwest 478 550 38,000  Level FlightAware ADS-B
Sun 01:34:43 PM 11.7160 121.6560 317° Northwest 478 550 38,000  Level FlightAware ADS-B
Sun 01:35:05 PM 11.6940 121.3400 266° West 490 564 38,000  Level FlightAware ADS-B
Sun 01:35:41 PM 11.7390 121.2690 303° West 489 563 38,000 86 Level FlightAware ADS-B
Sun 01:36:15 PM 11.7800 121.2040 303° West 485 558 38,100  Climbing FlightAware ADS-B
Sun 01:36:47 PM 11.8200 121.1430 304° West 484 557 38,000 -94 Descending FlightAware ADS-B
Sun 01:37:19 PM 11.8640 121.0850 308° West 480 552 38,000  Level FlightAware ADS-B
Sun 01:37:59 PM 11.9270 121.0220 316° Northwest 479 551 38,000  Level FlightAware ADS-B
Sun 01:38:33 PM 11.9800 120.9690 316° Northwest 487 560 38,000  Level FlightAware ADS-B
Sun 01:39:23 PM 12.0560 120.8950 316° Northwest 498 573 38,000  Level FlightAware ADS-B
Sun 01:39:57 PM 12.1230 120.8310 317° Northwest 502 578 38,000  Level FlightAware ADS-B
Sun 01:40:41 PM 12.1850 120.7890 326° Northwest 502 578 38,000  Level FlightAware ADS-B
Sun 01:41:20 PM 12.2950 120.7430 338° Northwest 503 579 38,000  Level FlightAware ADS-B
Sun 01:41:52 PM 12.3640 120.7150 338° Northwest 501 577 38,000  Level FlightAware ADS-B
Sun 01:42:24 PM 12.4330 120.6870 338° Northwest 501 577 38,000  Level FlightAware ADS-B
Sun 01:42:40 PM 12.4670 120.6730 338° Northwest 503 579 38,000  Level FlightAware ADS-B
Sun 01:43:47 PM 12.6110 120.6150 339° North 494 568 38,000  Level FlightAware ADS-B
Sun 01:44:15 PM 12.6700 120.5910 338° Northwest 493 567 38,000  Level FlightAware ADS-B
Sun 01:44:56 PM 12.7590 120.5550 338° Northwest 496 571 38,000  Level FlightAware ADS-B
Sun 01:45:36 PM 12.8450 120.5210 339° North 499 574 38,000  Level FlightAware ADS-B
Sun 01:46:09 PM 12.9150 120.4930 339° North 501 577 38,000  Level FlightAware ADS-B
Sun 01:46:47 PM 12.9970 120.4600 339° North 503 579 38,000  Level FlightAware ADS-B
Sun 01:47:22 PM 13.0750 120.4280 338° Northwest 506 582 38,000  Level FlightAware ADS-B
Sun 01:47:58 PM 13.1540 120.3960 338° Northwest 508 585 38,000 81 Level FlightAware ADS-B
Sun 01:48:36 PM 13.2360 120.3630 339° North 509 586 38,100 91 Climbing FlightAware ADS-B
Sun 01:49:04 PM 13.2980 120.3380 339° North 510 587 38,100  Level FlightAware ADS-B
Sun 01:49:45 PM 13.3880 120.3020 339° North 510 587 38,100  Level FlightAware ADS-B
Sun 01:50:14 PM 13.4520 120.2760 338° Northwest 508 585 38,100  Level FlightAware ADS-B
Sun 01:50:44 PM 13.5180 120.2500 339° North 503 579 38,100 -94 Level FlightAware ADS-B
Sun 01:51:18 PM 13.5900 120.2190 337° Northwest 499 574 38,000 -83 Descending FlightAware ADS-B
Sun 01:51:56 PM 13.6720 120.1850 338° Northwest 495 570 38,000  Level FlightAware ADS-B
Sun 01:52:30 PM 13.7440 120.1540 337° Northwest 491 565 38,000  Level FlightAware ADS-B
Sun 01:53:05 PM 13.8150 120.1230 337° Northwest 490 564 38,000  Level FlightAware ADS-B
Sun 01:53:41 PM 13.8830 120.0740 325° Northwest 491 565 38,000  Level FlightAware ADS-B
Sun 01:54:17 PM 13.9390 120.0140 314° West 492 566 38,000  Level FlightAware ADS-B
Sun 01:54:46 PM 13.9870 119.9630 314° West 493 567 38,000  Level FlightAware ADS-B
Sun 01:55:26 PM 14.0490 119.8950 313° West 495 570 38,000 78 Level FlightAware ADS-B
Sun 01:56:03 PM 14.1060 119.8330 313° West 494 568 38,100 85 Climbing FlightAware ADS-B
Sun 01:56:37 PM 14.1600 119.7730 313° West 493 567 38,100  Level FlightAware ADS-B
Sun 01:57:12 PM 14.2160 119.7120 313° West 494 568 38,100 -90 Level FlightAware ADS-B
Sun 01:57:44 PM 14.2650 119.6580 313° West 493 567 38,000 -88 Descending FlightAware ADS-B
Sun 01:58:20 PM 14.3220 119.5950 313° West 493 567 38,000  Level FlightAware ADS-B
Sun 01:58:56 PM 14.3780 119.5340 313° West 491 565 38,000  Level FlightAware ADS-B
Sun 01:59:30 PM 14.4310 119.4750 313° West 491 565 38,000 100 Level FlightAware ADS-B
Sun 01:59:56 PM 14.4720 119.4310 314° West 491 565 38,100  Climbing FlightAware ADS-B
Sun 02:00:00 PM 14.4780 119.4240 312° West 491 565 38,000  Descending FlightAware ADS-B
Sun 02:01:20 PM 14.6020 119.2870 313° West 488 562 38,100 55 Climbing FlightAware ADS-B
Sun 02:01:50 PM 14.6470 119.2370 313° West 486 559 38,100 -81 Level FlightAware ADS-B
Sun 02:02:34 PM 14.7160 119.1610 313° West 484 557 38,000 -71 Descending FlightAware ADS-B
Sun 02:03:14 PM 14.7770 119.0940 313° West 481 554 38,000  Level FlightAware ADS-B
Sun 02:03:21 PM 14.7860 119.0840 313° West 481 554 38,000  Level FlightAware ADS-B
Sun 02:04:29 PM 14.8900 118.9690 313° West 484 557 38,000  Level FlightAware ADS-B
Sun 02:05:08 PM 14.9500 118.9030 313° West 486 559 38,000  Level FlightAware ADS-B
Sun 02:05:46 PM 15.0090 118.8370 313° West 491 565 38,000 86 Level FlightAware ADS-B
Sun 02:06:18 PM 15.0580 118.7820 313° West 494 568 38,100 87 Climbing FlightAware ADS-B
Sun 02:06:55 PM 15.1160 118.7180 313° West 498 573 38,100  Level FlightAware ADS-B
Sun 02:07:26 PM 15.1660 118.6630 313° West 501 577 38,100  Level FlightAware ADS-B
Sun 02:08:10 PM 15.2350 118.5860 313° West 503 579 38,100  Level FlightAware ADS-B
Sun 02:08:44 PM 15.2880 118.5260 312° West 502 578 38,100  Level FlightAware ADS-B
Sun 02:09:39 PM 15.3670 118.4370 313° West 500 575 38,100  Level FlightAware ADS-B
Sun 02:10:14 PM 15.4130 118.3840 312° West 500 575 38,100  Level FlightAware ADS-B
Sun 02:10:50 PM 15.4610 118.3290 312° West 500 575 38,100  Level FlightAware ADS-B
Sun 02:11:28 PM 15.5110 118.2720 312° West 500 575 38,100  Level FlightAware ADS-B
Sun 02:12:05 PM 15.5590 118.2160 312° West 500 575 38,100  Level FlightAware ADS-B
Sun 02:12:39 PM 15.6040 118.1640 312° West 500 575 38,100  Level FlightAware ADS-B
Sun 02:13:15 PM 15.6510 118.1090 312° West 500 575 38,100  Level FlightAware ADS-B
Sun 02:13:52 PM 15.7000 118.0530 312° West 500 575 38,100  Level FlightAware ADS-B
Sun 02:14:29 PM 15.7490 117.9970 312° West 500 575 38,100  Level FlightAware ADS-B
Sun 02:15:05 PM 15.7960 117.9420 312° West 500 575 38,100  Level FlightAware ADS-B
Sun 02:15:44 PM 15.8470 117.8830 312° West 500 575 38,100  Level FlightAware ADS-B
Sun 02:16:19 PM 15.8930 117.8300 312° West 500 575 38,100  Level FlightAware ADS-B
Sun 02:16:55 PM 15.9410 117.7750 312° West 500 575 38,100  Level FlightAware ADS-B
Sun 02:17:31 PM 15.9880 117.7210 312° West 500 575 38,100  Level FlightAware ADS-B
Sun 02:18:08 PM 16.0370 117.6640 312° West 500 575 38,100  Level FlightAware ADS-B
Sun 02:18:44 PM 16.0840 117.6100 312° West 500 575 38,100 -119 Level FlightAware ADS-B
Sun 02:21:00 PM 16.2815 117.3996 314° West  Level FlightAware Approximate
Sun 02:22:00 PM 16.3686 117.3066 314° West  Level FlightAware Approximate
Sun 02:23:00 PM 16.4556 117.2136 314° West  Level FlightAware Approximate
Sun 02:24:00 PM 16.5652 117.1519 333° Northwest  Level FlightAware Approximate
Sun 02:25:00 PM 16.6762 117.0928 333° Northwest  Level FlightAware Approximate
Sun 02:26:00 PM 16.7873 117.0336 333° Northwest  Level FlightAware Approximate
Sun 02:27:00 PM 16.8983 116.9743 333° Northwest  Level FlightAware Approximate
Sun 02:28:00 PM 17.0093 116.9150 333° Northwest  Level FlightAware Approximate
Sun 02:29:00 PM 17.1202 116.8556 333° Northwest  Level FlightAware Approximate
Sun 02:30:00 PM 17.2312 116.7961 333° Northwest  Level FlightAware Approximate
Sun 02:31:00 PM 17.3421 116.7366 333° Northwest  Level FlightAware Approximate
Sun 02:32:00 PM 17.4531 116.6770 333° Northwest  Level FlightAware Approximate
Sun 02:33:00 PM 17.5640 116.6173 333° Northwest  Level FlightAware Approximate
Sun 02:34:00 PM 17.6749 116.5575 333° Northwest  Level FlightAware Approximate
Sun 02:35:00 PM 17.7857 116.4977 333° Northwest  Level FlightAware Approximate
Sun 02:36:00 PM 17.8966 116.4378 333° Northwest  Level FlightAware Approximate
Sun 02:37:00 PM 18.0074 116.3778 333° Northwest  Level FlightAware Approximate
Sun 02:38:00 PM 18.1182 116.3178 333° Northwest  Level FlightAware Approximate
Sun 02:39:00 PM 18.2290 116.2576 333° Northwest  Level FlightAware Approximate
Sun 02:40:00 PM 18.3398 116.1974 333° Northwest  Level FlightAware Approximate
Sun 02:41:00 PM 18.4506 116.1371 333° Northwest  Level FlightAware Approximate
Sun 02:42:00 PM 18.5613 116.0768 333° Northwest  Level FlightAware Approximate
Sun 02:43:00 PM 18.6721 116.0163 333° Northwest  Level FlightAware Approximate
Sun 02:44:00 PM 18.7827 115.9558 333° Northwest  Level FlightAware Approximate
Sun 02:45:00 PM 18.8934 115.8952 333° Northwest  Level FlightAware Approximate
Sun 02:46:00 PM 18.9850 115.8450 333° Northwest  Level FlightAware Approximate
Sun 02:47:00 PM 19.0949 115.7827 333° Northwest  Level Estimated
Sun 02:48:00 PM 18.9850 115.8450 333° Northwest  Level FlightAware Approximate
Sun 02:49:00 PM 19.0949 115.7827 333° Northwest  Level Estimated
Sun 02:50:00 PM 18.9850 115.8450 333° Northwest  Level FlightAware Approximate
Sun 02:51:00 PM 19.0949 115.7827 333° Northwest  Level Estimated
Sun 02:52:00 PM 18.9850 115.8450 333° Northwest  Level FlightAware Approximate
Sun 02:53:00 PM 19.0949 115.7827 333° Northwest  Level Estimated
Sun 02:54:00 PM 18.9850 115.8450 333° Northwest  Level FlightAware Approximate
Sun 02:55:00 PM 19.0949 115.7827 333° Northwest  Level Estimated
Sun 02:56:00 PM 18.9850 115.8450 333° Northwest  Level FlightAware Approximate
Sun 02:57:00 PM 19.0949 115.7827 333° Northwest  Level Estimated
Sun 02:57:44 PM 20.7910 114.9370 333° Northwest 495 570 33,400  Level FlightAware ADS-B
Sun 02:58:00 PM 18.9850 115.8450 333° Northwest  Level FlightAware Approximate
Sun 02:58:17 PM 20.8640 114.8990 334° Northwest 498 573 31,500  Level FlightAware ADS-B
Sun 02:59:02 PM 20.9480 114.8560 334° Northwest 492 566 30,600 -2,780 Descending FlightAware ADS-B
Sun 02:59:39 PM 21.0270 114.8160 335° Northwest 469 540 27,700 -4,118 Descending FlightAware ADS-B
Sun 02:59:53 PM 21.0550 114.8020 327° Northwest 465 535 27,100 -222 Descending FlightAware ADS-B
Sun 03:02:00 PM 21.2726 114.6448 327° Northwest  Level Estimated
Sun 03:02:21 PM 21.2980 114.6750 334° Northwest 465 535 27,100  Level FlightAware ADS-B
Sun 03:03:32 PM 21.4150 114.6140 334° Northwest 465 535 27,100 -1,895 Level FlightAware ADS-B
Sun 03:06:00 PM 21.6641 114.4202 324° Northwest  Level Estimated
Sun 03:07:00 PM 21.7651 114.3414 324° Northwest  Level Estimated
Sun 03:08:00 PM 21.8659 114.2626 324° Northwest  Level Estimated
Sun 03:09:00 PM 21.9668 114.1836 324° Northwest  Level Estimated
Sun 03:10:00 PM 22.0676 114.1045 324° Northwest  Level Estimated
Sun 03:11:00 PM 22.1684 114.0253 324° Northwest  Level Estimated
Sun 03:12:00 PM 22.2691 113.9460 324° Northwest  Level Estimated
Sun 03:13:00 PM 22.3089 113.9146 324° Northwest  Level Estimated
Sun 03:14:00 PM 22.3089 113.9146 110° East  Level Estimated
Sun 03:15:00 PM 22.3089 113.9146 110° East  Level Estimated
Sun 03:15:01 PM 22.1110 113.8450 110° East 252 290 3,100  Level FlightAware ADS-B
Sun 03:15:16 PM 22.1170 113.8310 295° West 241 277 3,100  Level FlightAware ADS-B
Sun 03:15:44 PM 22.1280 113.8050 295° West 241 277 3,100 -286 Level FlightAware ADS-B
Sun 03:16:19 PM 22.1510 113.7660 302° West 233 268 2,800 -615 Descending FlightAware ADS-B
Sun 03:16:23 PM 22.1550 113.7640 335° Northwest 234 269 2,700 -720 Descending FlightAware ADS-B
Sun 03:16:44 PM 22.1750 113.7570 342° North 225 259 2,500 -667 Descending FlightAware ADS-B
Sun 03:16:59 PM 22.1900 113.7500 337° Northwest 218 251 2,300 -686 Descending FlightAware ADS-B
Sun 03:17:19 PM 22.2080 113.7420 338° Northwest 207 238 2,100 -333 Descending FlightAware ADS-B
Sun 03:17:35 PM 22.2210 113.7390 348° North 199 229 2,100 -167 Level FlightAware ADS-B
Sun 03:17:55 PM 22.2380 113.7470 24° Northeast 192 221 2,000 -529 Descending FlightAware ADS-B
Sun 03:18:09 PM 22.2480 113.7560 40° Northeast 185 213 1,800 -600 Descending FlightAware ADS-B
Sun 03:18:15 PM 22.2500 113.7590 54° Northeast 182 209 1,800  Level FlightAware ADS-B
Sun 03:18:19 PM 22.2520 113.7630 62° Northeast 174 200 1,800  Level FlightAware ADS-B
Sun 03:18:46 PM 22.2600 113.7850 69° East 171 197 1,800  Level FlightAware ADS-B
Sun 03:19:07 PM 22.2650 113.8010 71° East 168 193 1,800 -255 Level FlightAware ADS-B
Sun 03:19:33 PM 22.2720 113.8220 70° East 168 193 1,600 -627 Descending FlightAware ADS-B
Sun 03:21:21 PM 22.2930 113.8880 71° East 146 168 400 -692 Descending FlightAware ADS-B
Sun 03:21:43 PM 22.3000 113.9090 70° East 130 150 100 -818 Descending FlightAware ADS-B

Login

Don't have an account? Register now (free) for customized features, flight alerts, and more!